Time;durP1;ratioP1;P1;durP2;ratioP2;P2;SDS_P1;SDS_P2;PMS_P1;PMS_P2;Temp;Humidity;BMP_temperature;BMP_pressure;BME280_temperature;BME280_humidity;BME280_pressure;Samples;Min_cycle;Max_cycle;Signal;HPM_P1;HPM_P2
2023/07/07 00:02:15;;;;;;;3.07;2.67;;;14.60;99.90;;;;;;5030065;28;20463;-69
2023/07/07 00:04:42;;;;;;;3.07;2.40;;;14.60;99.90;;;;;;5029757;28;20574;-69
2023/07/07 00:07:08;;;;;;;3.30;2.10;;;14.60;99.90;;;;;;5029882;28;20951;-69
2023/07/07 00:09:35;;;;;;;2.67;2.20;;;14.60;99.90;;;;;;5030038;28;20466;-69
2023/07/07 00:12:02;;;;;;;4.00;2.73;;;14.50;99.90;;;;;;5030161;28;20480;-70
2023/07/07 00:14:30;;;;;;;5.30;2.43;;;14.50;99.90;;;;;;5029357;28;20469;-69
2023/07/07 00:17:01;;;;;;;3.40;2.87;;;14.50;99.90;;;;;;5030069;28;20490;-69
2023/07/07 00:19:32;;;;;;;2.73;2.53;;;14.50;99.90;;;;;;5029862;28;20464;-69
2023/07/07 00:21:59;;;;;;;2.20;2.00;;;14.50;99.90;;;;;;5030185;28;20514;-68
2023/07/07 00:24:26;;;;;;;2.80;2.50;;;14.50;99.90;;;;;;5029206;28;20463;-69
2023/07/07 00:26:53;;;;;;;4.67;2.70;;;14.40;99.90;;;;;;5029887;28;20975;-69
2023/07/07 00:29:19;;;;;;;2.47;2.27;;;14.40;99.90;;;;;;5029794;28;20471;-69
2023/07/07 00:31:47;;;;;;;2.73;2.43;;;14.40;99.90;;;;;;5029930;28;20487;-69
2023/07/07 00:34:14;;;;;;;4.40;2.40;;;14.30;99.90;;;;;;5029360;28;20471;-69
2023/07/07 00:36:41;;;;;;;3.30;2.47;;;14.30;99.90;;;;;;5029795;28;20467;-68
2023/07/07 00:39:08;;;;;;;3.07;2.43;;;14.30;99.90;;;;;;5029811;28;20503;-69
2023/07/07 00:41:34;;;;;;;2.97;2.30;;;14.30;99.90;;;;;;5029966;28;20555;-69
2023/07/07 00:44:06;;;;;;;2.73;2.30;;;14.30;99.90;;;;;;5029500;28;20469;-69
2023/07/07 00:46:33;;;;;;;3.50;2.33;;;14.30;99.90;;;;;;5029842;28;20464;-69
2023/07/07 00:49:05;;;;;;;2.33;2.13;;;14.20;99.90;;;;;;5032869;28;20491;-68
2023/07/07 00:51:35;;;;;;;5.40;2.40;;;14.20;99.90;;;;;;5033187;28;21025;-69
2023/07/07 00:54:07;;;;;;;5.50;2.50;;;14.20;99.90;;;;;;5033040;28;20463;-69
2023/07/07 00:56:37;;;;;;;3.40;2.70;;;14.20;99.90;;;;;;5033350;28;20944;-70
2023/07/07 00:59:09;;;;;;;3.07;2.80;;;14.10;99.90;;;;;;5033372;28;20484;-69
2023/07/07 01:01:37;;;;;;;3.27;2.50;;;14.10;99.90;;;;;;5033254;28;20543;-69
2023/07/07 01:04:10;;;;;;;3.23;2.27;;;14.10;99.90;;;;;;5032753;28;20825;-69
2023/07/07 01:06:41;;;;;;;2.73;2.53;;;14.10;99.90;;;;;;5033191;28;21314;-69
2023/07/07 01:09:09;;;;;;;3.07;2.40;;;14.10;99.90;;;;;;5033220;28;20483;-69
2023/07/07 01:11:37;;;;;;;3.93;2.30;;;14.10;99.90;;;;;;5005252;28;20576;-69
2023/07/07 01:14:08;;;;;;;3.40;2.63;;;14.00;99.90;;;;;;5012754;28;20461;-69
2023/07/07 01:16:42;;;;;;;2.60;2.23;;;14.00;99.90;;;;;;5012962;28;20484;-69
2023/07/07 01:19:41;;;;;;;3.00;2.07;;;14.00;99.90;;;;;;5013227;28;20868;-69
2023/07/07 01:22:28;;;;;;;3.07;2.10;;;13.90;99.90;;;;;;4990806;28;20925;-68
2023/07/07 01:25:06;;;;;;;2.60;2.13;;;13.90;99.90;;;;;;5012749;28;20465;-69
2023/07/07 01:27:53;;;;;;;5.33;2.87;;;13.90;99.90;;;;;;5012734;28;20496;-69
2023/07/07 01:30:36;;;;;;;2.67;2.40;;;13.90;99.90;;;;;;5012769;28;20516;-69
2023/07/07 01:33:07;;;;;;;2.90;2.70;;;13.80;99.90;;;;;;5012840;28;20461;-69
2023/07/07 01:35:34;;;;;;;3.70;2.23;;;13.80;99.90;;;;;;5012645;28;20464;-69
2023/07/07 01:38:02;;;;;;;2.77;2.33;;;13.80;99.90;;;;;;5012809;28;20483;-69
2023/07/07 01:40:38;;;;;;;3.20;2.73;;;13.80;99.90;;;;;;5012575;28;20457;-69
2023/07/07 01:43:09;;;;;;;2.47;1.97;;;13.80;99.90;;;;;;5012467;28;20461;-68
2023/07/07 01:45:45;;;;;;;2.60;2.30;;;13.70;99.90;;;;;;5012470;28;20461;-69
2023/07/07 01:48:17;;;;;;;3.47;3.17;;;13.80;99.90;;;;;;5012760;28;20480;-69
2023/07/07 01:50:46;;;;;;;2.40;2.20;;;13.70;99.90;;;;;;5012451;28;20971;-68
2023/07/07 01:53:19;;;;;;;2.70;2.50;;;13.70;99.90;;;;;;5012182;28;20477;-68
2023/07/07 01:55:50;;;;;;;4.93;2.60;;;13.70;99.90;;;;;;5012740;28;20467;-69
2023/07/07 01:58:19;;;;;;;2.93;2.50;;;13.70;99.90;;;;;;5012299;28;20473;-68
2023/07/07 02:00:49;;;;;;;4.33;2.67;;;13.70;99.90;;;;;;5011817;28;21127;-68
2023/07/07 02:03:17;;;;;;;3.10;2.63;;;13.70;99.90;;;;;;5011707;28;20849;-69
2023/07/07 02:05:43;;;;;;;3.00;2.40;;;13.60;99.90;;;;;;5012509;28;20461;-68
2023/07/07 02:08:10;;;;;;;2.77;2.57;;;13.70;99.90;;;;;;5012203;28;20481;-68
2023/07/07 02:10:38;;;;;;;3.30;2.70;;;13.60;99.90;;;;;;5011961;28;20442;-69
2023/07/07 02:13:04;;;;;;;3.07;2.77;;;13.60;99.90;;;;;;5011674;28;20504;-68
2023/07/07 02:15:31;;;;;;;2.30;2.10;;;13.60;99.90;;;;;;5011726;28;20469;-69
2023/07/07 02:17:59;;;;;;;2.97;2.10;;;13.50;99.90;;;;;;5012114;28;20485;-68
2023/07/07 02:20:26;;;;;;;3.07;2.40;;;13.50;99.90;;;;;;5011717;28;20832;-68
2023/07/07 02:22:52;;;;;;;2.57;2.17;;;13.50;99.90;;;;;;5012161;28;20461;-68
2023/07/07 02:25:19;;;;;;;3.50;2.30;;;13.50;99.90;;;;;;5011318;28;20832;-68
2023/07/07 02:27:46;;;;;;;2.80;2.33;;;13.50;99.90;;;;;;5011835;28;20511;-68
2023/07/07 02:30:12;;;;;;;2.67;2.47;;;13.40;99.90;;;;;;5012058;28;20461;-70
2023/07/07 02:32:39;;;;;;;2.73;2.53;;;13.40;99.90;;;;;;5011481;28;20481;-69
2023/07/07 02:35:08;;;;;;;2.57;2.23;;;13.30;99.90;;;;;;5011299;28;20470;-69
2023/07/07 02:37:35;;;;;;;2.33;2.13;;;13.30;99.90;;;;;;5011354;28;20477;-70
2023/07/07 02:40:03;;;;;;;4.00;2.73;;;13.30;99.90;;;;;;5011799;28;20473;-69
2023/07/07 02:42:29;;;;;;;3.50;2.47;;;13.30;99.90;;;;;;5011263;28;20973;-69
2023/07/07 02:44:56;;;;;;;2.50;2.10;;;13.20;99.90;;;;;;5011064;28;20472;-69
2023/07/07 02:47:23;;;;;;;3.63;2.40;;;13.20;99.90;;;;;;5011280;28;20485;-69
2023/07/07 02:49:49;;;;;;;3.70;2.60;;;13.20;99.90;;;;;;5011604;28;20469;-69
2023/07/07 02:52:17;;;;;;;2.97;2.40;;;13.20;99.90;;;;;;5011568;28;20889;-69
2023/07/07 02:54:44;;;;;;;3.07;2.87;;;13.20;99.90;;;;;;5010714;28;20461;-69
2023/07/07 02:57:11;;;;;;;3.57;2.63;;;13.10;99.90;;;;;;5011249;28;20931;-69
2023/07/07 02:59:37;;;;;;;2.90;2.60;;;13.10;99.90;;;;;;5011099;28;20473;-70
2023/07/07 03:02:05;;;;;;;4.17;3.20;;;13.10;99.90;;;;;;5011487;28;20458;-69
2023/07/07 03:04:32;;;;;;;3.50;2.93;;;13.10;99.90;;;;;;5010426;28;20956;-70
2023/07/07 03:06:59;;;;;;;3.37;2.70;;;13.10;99.90;;;;;;5011225;28;20458;-69
2023/07/07 03:09:27;;;;;;;3.30;2.27;;;13.10;99.90;;;;;;5011065;28;20980;-69
2023/07/07 03:11:53;;;;;;;3.57;2.80;;;13.10;99.90;;;;;;5010224;28;20488;-68
2023/07/07 03:14:21;;;;;;;2.93;2.40;;;13.00;99.90;;;;;;5010653;28;20472;-69
2023/07/07 03:16:51;;;;;;;2.80;2.57;;;13.00;99.90;;;;;;5003145;28;20466;-69
2023/07/07 03:19:19;;;;;;;2.93;2.10;;;13.00;99.90;;;;;;5011018;28;20485;-69
2023/07/07 03:21:45;;;;;;;2.90;2.60;;;13.00;99.90;;;;;;5010790;28;20531;-69
2023/07/07 03:24:14;;;;;;;2.73;2.53;;;13.00;99.90;;;;;;5010688;28;20465;-68
2023/07/07 03:26:42;;;;;;;2.87;2.60;;;13.00;99.90;;;;;;5010588;28;20465;-69
2023/07/07 03:29:09;;;;;;;2.47;2.27;;;12.90;99.90;;;;;;5010968;28;20485;-69
2023/07/07 03:31:36;;;;;;;2.93;2.53;;;12.90;99.90;;;;;;5010494;28;20492;-69
2023/07/07 03:34:05;;;;;;;3.33;2.47;;;12.90;99.90;;;;;;5010482;28;20465;-69
2023/07/07 03:36:34;;;;;;;2.47;2.27;;;12.90;99.90;;;;;;5010586;28;20508;-69
2023/07/07 03:39:01;;;;;;;3.77;2.97;;;12.80;99.90;;;;;;5010846;28;20488;-69
2023/07/07 03:41:29;;;;;;;2.93;2.50;;;12.80;99.90;;;;;;5010659;28;20465;-69
2023/07/07 03:43:58;;;;;;;4.60;3.33;;;12.80;99.90;;;;;;5010133;28;20464;-69
2023/07/07 03:46:27;;;;;;;3.83;2.80;;;12.80;99.90;;;;;;5010809;28;20461;-69
2023/07/07 03:48:55;;;;;;;5.70;2.90;;;12.80;99.90;;;;;;5010581;28;20485;-68
2023/07/07 03:51:23;;;;;;;2.90;2.53;;;12.80;99.90;;;;;;5010555;28;21215;-69
2023/07/07 03:53:51;;;;;;;2.47;2.27;;;12.80;99.90;;;;;;5009668;28;20468;-69
2023/07/07 03:56:19;;;;;;;3.90;3.03;;;12.80;99.90;;;;;;5010538;28;20468;-69
2023/07/07 03:58:46;;;;;;;2.73;2.53;;;12.80;99.90;;;;;;5010232;28;20583;-69
2023/07/07 04:01:15;;;;;;;4.00;3.00;;;12.80;99.90;;;;;;5010596;28;20472;-69
2023/07/07 04:03:43;;;;;;;3.30;3.00;;;12.80;99.90;;;;;;5009830;28;20461;-70
2023/07/07 04:06:09;;;;;;;7.17;3.00;;;12.80;99.90;;;;;;5010637;28;20499;-69
2023/07/07 04:08:36;;;;;;;2.53;2.33;;;12.80;99.90;;;;;;5010219;28;20991;-69
2023/07/07 04:11:06;;;;;;;2.90;2.60;;;12.80;99.90;;;;;;5010451;28;20843;-69
2023/07/07 04:13:35;;;;;;;3.20;2.37;;;12.80;99.90;;;;;;5009698;28;20504;-69
2023/07/07 04:16:04;;;;;;;2.90;2.30;;;12.80;99.90;;;;;;5010309;28;20464;-68
2023/07/07 04:18:33;;;;;;;4.00;3.17;;;12.80;99.90;;;;;;5010015;28;20492;-69
2023/07/07 04:21:01;;;;;;;3.63;2.40;;;12.90;99.90;;;;;;5014345;28;20468;-69
2023/07/07 04:23:28;;;;;;;3.30;2.67;;;12.90;99.90;;;;;;5031562;28;20843;-69
2023/07/07 04:25:55;;;;;;;3.63;2.70;;;12.90;99.90;;;;;;5033807;28;20475;-69
2023/07/07 04:28:22;;;;;;;3.10;2.83;;;13.00;99.90;;;;;;5033892;28;20484;-69
2023/07/07 04:30:52;;;;;;;4.13;3.60;;;13.00;99.90;;;;;;5033682;28;20460;-69
2023/07/07 04:33:19;;;;;;;3.90;3.30;;;13.10;99.90;;;;;;5033241;28;20480;-69
2023/07/07 04:35:52;;;;;;;3.67;2.97;;;13.10;99.90;;;;;;5033573;28;20961;-69
2023/07/07 04:38:20;;;;;;;4.23;3.20;;;13.10;99.90;;;;;;5033796;28;20480;-68
2023/07/07 04:40:47;;;;;;;2.97;2.67;;;13.20;99.90;;;;;;5033397;28;20506;-69
2023/07/07 04:43:14;;;;;;;4.40;2.73;;;13.20;99.90;;;;;;5033151;28;20460;-69
2023/07/07 04:45:40;;;;;;;3.40;2.53;;;13.20;99.90;;;;;;5033412;28;20547;-68
2023/07/07 04:48:07;;;;;;;2.90;2.60;;;13.30;99.90;;;;;;5033654;28;20488;-69
2023/07/07 04:50:34;;;;;;;6.40;3.07;;;13.30;99.90;;;;;;5032794;28;20964;-69
2023/07/07 04:53:02;;;;;;;3.93;2.77;;;13.40;99.90;;;;;;5033130;28;20677;-69
2023/07/07 04:55:28;;;;;;;4.47;3.20;;;13.40;99.90;;;;;;5033213;28;20990;-69
2023/07/07 04:57:55;;;;;;;2.90;2.70;;;13.50;99.90;;;;;;5033102;28;20506;-69
2023/07/07 05:00:22;;;;;;;3.93;2.70;;;13.50;99.90;;;;;;5033411;28;20473;-69
2023/07/07 05:02:48;;;;;;;3.40;2.77;;;13.60;99.90;;;;;;5033102;28;20460;-69
2023/07/07 05:05:15;;;;;;;2.63;2.43;;;13.60;99.90;;;;;;5033023;28;20874;-69
2023/07/07 05:07:42;;;;;;;3.50;3.03;;;13.70;99.90;;;;;;5032788;28;21010;-68
2023/07/07 05:10:10;;;;;;;5.70;3.63;;;13.80;99.90;;;;;;5033241;28;20465;-69
2023/07/07 05:12:37;;;;;;;2.80;2.50;;;13.80;99.90;;;;;;5032770;28;20486;-69
2023/07/07 05:15:05;;;;;;;4.70;2.77;;;13.90;99.90;;;;;;5032576;28;20468;-68
2023/07/07 05:17:31;;;;;;;3.30;2.88;;;14.00;99.90;;;;;;5009554;28;20811;-71
2023/07/07 05:19:58;;;;;;;5.00;3.53;;;14.10;99.90;;;;;;5013255;28;20209;-71
2023/07/07 05:22:25;;;;;;;3.57;3.27;;;14.10;99.90;;;;;;5012816;28;20457;-71
2023/07/07 05:24:51;;;;;;;4.83;3.10;;;14.20;99.90;;;;;;5011966;28;20952;-71
2023/07/07 05:27:19;;;;;;;4.80;2.97;;;14.30;99.90;;;;;;5012769;28;20855;-71
2023/07/07 05:29:46;;;;;;;3.80;3.40;;;14.40;99.90;;;;;;5012448;28;20462;-71
2023/07/07 05:32:13;;;;;;;4.27;3.40;;;14.50;99.90;;;;;;5012909;28;20488;-71
2023/07/07 05:34:39;;;;;;;3.80;2.70;;;14.70;99.90;;;;;;5011223;28;20460;-71
2023/07/07 05:37:06;;;;;;;4.80;3.63;;;14.70;99.90;;;;;;5012789;28;20882;-71
2023/07/07 05:39:33;;;;;;;3.80;3.00;;;14.90;99.90;;;;;;5013082;28;20516;-71
2023/07/07 05:41:59;;;;;;;7.33;3.70;;;15.00;99.90;;;;;;5012451;28;20461;-71
2023/07/07 05:44:27;;;;;;;3.77;2.83;;;15.10;99.90;;;;;;5012237;28;20473;-71
2023/07/07 05:46:54;;;;;;;3.83;3.23;;;15.20;99.90;;;;;;5012284;28;20469;-71
2023/07/07 05:49:21;;;;;;;3.77;3.17;;;15.30;99.90;;;;;;5012691;28;21022;-71
2023/07/07 05:51:48;;;;;;;4.13;3.13;;;15.50;99.90;;;;;;5012272;28;20978;-71
2023/07/07 05:54:15;;;;;;;3.30;3.00;;;15.60;99.90;;;;;;5011975;28;20473;-71
2023/07/07 05:56:42;;;;;;;5.07;3.17;;;15.70;99.90;;;;;;5012349;28;20872;-71
2023/07/07 05:59:08;;;;;;;3.60;2.80;;;15.80;99.90;;;;;;5012463;28;20484;-71
2023/07/07 06:01:38;;;;;;;3.60;3.20;;;16.00;99.90;;;;;;5012466;28;20461;-71
2023/07/07 06:04:05;;;;;;;5.80;3.63;;;16.10;99.90;;;;;;5003925;28;20941;-71
2023/07/07 06:06:32;;;;;;;5.93;3.37;;;16.20;99.90;;;;;;5011727;28;20468;-71
2023/07/07 06:08:58;;;;;;;3.63;3.20;;;16.30;99.90;;;;;;5011466;28;20512;-71
2023/07/07 06:11:25;;;;;;;4.00;3.50;;;16.30;99.90;;;;;;5011970;28;20472;-71
2023/07/07 06:13:52;;;;;;;3.87;2.80;;;16.50;99.90;;;;;;5011002;28;20489;-71
2023/07/07 06:16:19;;;;;;;4.53;3.40;;;16.60;99.90;;;;;;5012054;28;20842;-71
2023/07/07 06:18:47;;;;;;;3.87;3.13;;;16.70;99.90;;;;;;5011564;28;20493;-72
2023/07/07 06:21:14;;;;;;;5.80;3.87;;;16.80;99.90;;;;;;5012000;28;20469;-71
2023/07/07 06:23:42;;;;;;;7.00;3.77;;;17.00;99.90;;;;;;5011321;28;20461;-72
2023/07/07 06:26:08;;;;;;;3.97;3.20;;;17.10;99.90;;;;;;5011782;28;20521;-71
2023/07/07 06:28:42;;;;;;;3.90;2.90;;;17.20;99.90;;;;;;5011792;28;20492;-71
2023/07/07 06:31:09;;;;;;;4.33;3.43;;;17.30;99.90;;;;;;5012046;28;20844;-70
2023/07/07 06:33:36;;;;;;;4.40;3.90;;;17.40;99.90;;;;;;5011256;28;20491;-71
2023/07/07 06:36:04;;;;;;;5.53;3.70;;;17.50;99.90;;;;;;5011512;28;20474;-70
2023/07/07 06:38:31;;;;;;;3.77;3.33;;;17.60;99.90;;;;;;5011716;28;20985;-71
2023/07/07 06:40:58;;;;;;;5.53;3.43;;;17.70;99.90;;;;;;5011399;28;20472;-71
2023/07/07 06:43:24;;;;;;;4.10;3.20;;;17.80;99.90;;;;;;5011099;28;20464;-71
2023/07/07 06:45:55;;;;;;;5.53;3.70;;;18.00;99.90;;;;;;5011286;28;20462;-71
2023/07/07 06:48:22;;;;;;;4.00;2.90;;;18.10;99.90;;;;;;5014251;28;20871;-71
2023/07/07 06:50:49;;;;;;;5.90;3.73;;;18.20;99.90;;;;;;5019980;28;20475;-71
2023/07/07 06:53:17;;;;;;;4.73;3.80;;;18.30;99.90;;;;;;5009757;28;20485;-71
2023/07/07 06:55:44;;;;;;;4.33;3.13;;;18.40;99.90;;;;;;5010083;28;20870;-71
2023/07/07 06:58:12;;;;;;;4.63;3.27;;;18.50;99.90;;;;;;5009776;28;20519;-71
2023/07/07 07:00:38;;;;;;;3.23;2.70;;;18.70;99.90;;;;;;5009496;28;20469;-71
2023/07/07 07:03:05;;;;;;;6.47;3.30;;;18.80;99.90;;;;;;5008610;28;20463;-71
2023/07/07 07:05:32;;;;;;;4.50;2.90;;;18.80;99.90;;;;;;5008839;28;20462;-71
2023/07/07 07:07:59;;;;;;;3.50;3.00;;;18.90;99.90;;;;;;5009449;28;20638;-72
2023/07/07 07:10:27;;;;;;;3.10;2.80;;;19.00;99.90;;;;;;5010246;28;20462;-72
2023/07/07 07:12:53;;;;;;;4.50;3.20;;;19.10;99.90;;;;;;5010673;28;20488;-71
2023/07/07 07:15:20;;;;;;;4.93;2.97;;;19.20;99.90;;;;;;5010902;28;20470;-71
2023/07/07 07:17:47;;;;;;;5.63;3.13;;;19.30;99.90;;;;;;5010611;28;20553;-71
2023/07/07 07:20:17;;;;;;;3.90;2.80;;;19.40;99.90;;;;;;5010847;28;20475;-71
2023/07/07 07:22:44;;;;;;;4.20;3.07;;;19.50;99.90;;;;;;5011121;28;20454;-71
2023/07/07 07:25:11;;;;;;;3.50;2.80;;;19.60;99.90;;;;;;5010424;28;20972;-71
2023/07/07 07:27:39;;;;;;;3.50;3.00;;;19.70;99.90;;;;;;5010958;28;20488;-71
2023/07/07 07:30:07;;;;;;;5.03;2.80;;;19.80;99.90;;;;;;5021540;28;20852;-72
2023/07/07 07:32:34;;;;;;;4.07;3.00;;;19.90;99.90;;;;;;5030497;28;20500;-72
2023/07/07 07:35:00;;;;;;;4.17;2.97;;;20.00;99.90;;;;;;5029718;28;20842;-72
2023/07/07 07:37:27;;;;;;;2.77;2.50;;;20.10;99.90;;;;;;5030463;28;20488;-72
2023/07/07 07:39:54;;;;;;;3.90;3.03;;;20.20;99.90;;;;;;5030265;28;20465;-71
2023/07/07 07:42:20;;;;;;;3.83;3.07;;;20.40;99.90;;;;;;5009552;28;20475;-71
2023/07/07 07:44:48;;;;;;;3.20;2.90;;;20.50;99.90;;;;;;4998340;28;20470;-71
2023/07/07 07:47:15;;;;;;;3.10;2.80;;;20.60;99.90;;;;;;4990258;28;20879;-72
2023/07/07 07:49:42;;;;;;;4.50;3.33;;;20.60;99.90;;;;;;4995862;28;20462;-71
2023/07/07 07:52:08;;;;;;;3.63;3.00;;;20.70;99.90;;;;;;5007452;28;21192;-71
2023/07/07 07:54:35;;;;;;;2.97;2.67;;;20.80;99.90;;;;;;5010128;28;20948;-71
2023/07/07 07:57:02;;;;;;;5.37;3.40;;;20.90;99.90;;;;;;5009456;28;20489;-71
2023/07/07 07:59:29;;;;;;;3.10;2.80;;;21.00;99.90;;;;;;5010059;28;20472;-71
2023/07/07 08:01:57;;;;;;;3.47;2.83;;;21.00;99.90;;;;;;5010385;28;20465;-71
2023/07/07 08:04:24;;;;;;;3.50;2.77;;;21.10;99.90;;;;;;5010104;28;20461;-71
2023/07/07 08:06:53;;;;;;;3.80;2.60;;;21.30;99.90;;;;;;5010152;28;20506;-71
2023/07/07 08:09:19;;;;;;;3.20;2.90;;;21.40;99.90;;;;;;5010373;28;20500;-71
2023/07/07 08:12:01;;;;;;;3.50;2.67;;;21.60;99.90;;;;;;5010514;28;20957;-71
2023/07/07 08:14:31;;;;;;;4.27;3.43;;;21.70;99.90;;;;;;5023223;28;20483;-71
2023/07/07 08:17:02;;;;;;;4.33;3.47;;;21.80;99.90;;;;;;5020350;28;20548;-71
2023/07/07 08:19:30;;;;;;;4.73;3.10;;;22.00;99.90;;;;;;5010253;28;20476;-71
2023/07/07 08:21:58;;;;;;;4.50;2.87;;;22.10;99.90;;;;;;5010813;28;20900;-71
2023/07/07 08:24:25;;;;;;;3.07;2.77;;;22.20;99.90;;;;;;5029381;28;20809;-71
2023/07/07 08:26:52;;;;;;;5.20;2.97;;;22.30;99.90;;;;;;5021502;28;20465;-71
2023/07/07 08:29:19;;;;;;;4.30;2.80;;;22.40;99.90;;;;;;5013712;28;21004;-71
2023/07/07 08:31:45;;;;;;;4.27;3.37;;;22.50;99.90;;;;;;5021843;28;20466;-71
2023/07/07 08:34:13;;;;;;;4.03;3.10;;;22.60;99.90;;;;;;5009865;28;20483;-71
2023/07/07 08:36:40;;;;;;;4.70;3.43;;;22.70;99.90;;;;;;5010186;28;20464;-71
2023/07/07 08:39:14;;;;;;;3.37;2.80;;;22.90;99.90;;;;;;5009581;28;20491;-71
2023/07/07 08:41:49;;;;;;;4.50;3.30;;;23.10;99.90;;;;;;5010149;28;20474;-71
2023/07/07 08:44:18;;;;;;;4.97;3.30;;;23.20;99.90;;;;;;5009254;28;20471;-71
2023/07/07 08:47:08;;;;;;;3.97;3.00;;;23.40;99.90;;;;;;5010232;28;20472;-71
2023/07/07 08:49:44;;;;;;;4.03;3.30;;;23.50;99.90;;;;;;5009983;28;20463;-71
2023/07/07 08:52:21;;;;;;;3.60;3.30;;;23.60;99.90;;;;;;5009646;28;20467;-71
2023/07/07 08:54:54;;;;;;;3.40;3.10;;;23.60;99.90;;;;;;5009231;28;20491;-71
2023/07/07 08:57:27;;;;;;;4.73;3.60;;;23.70;99.90;;;;;;5010014;28;20573;-71
2023/07/07 09:00:00;;;;;;;3.73;3.43;;;23.90;99.90;;;;;;5010200;28;20466;-72
2023/07/07 09:03:05;;;;;;;6.00;3.40;;;24.00;98.50;;;;;;5010007;28;20465;-71
2023/07/07 09:05:44;;;;;;;3.50;3.10;;;24.00;99.30;;;;;;5009093;28;20465;-71
2023/07/07 09:08:19;;;;;;;5.77;3.60;;;24.10;99.90;;;;;;5009482;28;20512;-71
2023/07/07 09:10:56;;;;;;;4.00;3.60;;;24.20;99.30;;;;;;5012221;28;20474;-71
2023/07/07 09:13:27;;;;;;;3.87;3.27;;;24.30;97.90;;;;;;5012439;28;20481;-71
2023/07/07 09:16:06;;;;;;;3.57;3.10;;;24.30;98.00;;;;;;5012588;28;20982;-72
2023/07/07 09:18:37;;;;;;;4.00;3.20;;;24.40;97.90;;;;;;5013007;28;20491;-71
2023/07/07 09:21:11;;;;;;;4.77;3.53;;;24.60;97.20;;;;;;5012764;28;20472;-71
2023/07/07 09:23:39;;;;;;;4.23;3.40;;;24.70;93.10;;;;;;5018183;28;20456;-71
2023/07/07 09:26:12;;;;;;;4.00;3.17;;;24.80;97.10;;;;;;5032399;28;20467;-71
2023/07/07 09:28:46;;;;;;;4.93;3.90;;;24.90;95.40;;;;;;5032574;28;20990;-71
2023/07/07 09:31:25;;;;;;;5.60;4.03;;;25.10;93.70;;;;;;5032194;28;20470;-71
2023/07/07 09:33:52;;;;;;;4.10;3.70;;;25.20;94.70;;;;;;5032018;28;20495;-71
2023/07/07 09:36:25;;;;;;;3.87;3.47;;;25.30;95.20;;;;;;5032070;28;20477;-71
2023/07/07 09:39:03;;;;;;;5.93;4.00;;;25.40;94.90;;;;;;5032674;28;20489;-71
2023/07/07 09:41:37;;;;;;;4.83;4.10;;;25.50;94.10;;;;;;5005653;28;20495;-71
2023/07/07 09:44:17;;;;;;;4.57;3.70;;;25.60;95.30;;;;;;5020828;28;20846;-71
2023/07/07 09:46:51;;;;;;;4.80;4.03;;;25.60;95.80;;;;;;5026263;28;20471;-71
2023/07/07 09:49:26;;;;;;;5.00;4.10;;;25.70;95.60;;;;;;5012387;28;20492;-71
2023/07/07 09:52:01;;;;;;;4.10;3.70;;;25.80;95.00;;;;;;5010570;28;20946;-72
2023/07/07 09:54:30;;;;;;;4.03;3.47;;;25.90;94.90;;;;;;5011667;28;20518;-71
2023/07/07 09:57:01;;;;;;;4.90;4.17;;;26.00;97.00;;;;;;5020239;28;20472;-71
2023/07/07 09:59:34;;;;;;;5.00;3.83;;;26.10;95.10;;;;;;5004636;28;20468;-71
2023/07/07 10:02:02;;;;;;;5.80;4.50;;;26.10;96.70;;;;;;5012139;28;20484;-71
2023/07/07 10:04:30;;;;;;;4.10;3.70;;;26.20;96.60;;;;;;5019351;28;20542;-71
2023/07/07 10:07:01;;;;;;;5.53;3.77;;;26.20;92.30;;;;;;5012200;28;20521;-71
2023/07/07 10:09:28;;;;;;;3.77;3.33;;;26.20;94.10;;;;;;5012022;28;20979;-71
2023/07/07 10:11:56;;;;;;;5.63;4.47;;;26.30;93.30;;;;;;5012142;28;20469;-71
2023/07/07 10:14:25;;;;;;;5.50;4.17;;;26.30;90.90;;;;;;5011133;28;20992;-71
2023/07/07 10:17:00;;;;;;;5.67;4.10;;;26.20;94.80;;;;;;5027152;28;20848;-71
2023/07/07 10:19:28;;;;;;;6.70;4.23;;;26.30;96.30;;;;;;5004056;28;20471;-71
2023/07/07 10:21:54;;;;;;;4.00;3.60;;;26.40;96.10;;;;;;5011371;28;20469;-71
2023/07/07 10:24:23;;;;;;;4.30;3.40;;;26.50;93.50;;;;;;5011025;28;20461;-71
2023/07/07 10:26:50;;;;;;;7.47;3.80;;;26.60;97.00;;;;;;5011916;28;20465;-71
2023/07/07 10:29:21;;;;;;;4.60;3.60;;;26.70;95.90;;;;;;5008678;28;20484;-71
2023/07/07 10:31:49;;;;;;;5.10;4.60;;;26.70;92.90;;;;;;5028403;28;20828;-70
2023/07/07 10:34:23;;;;;;;5.40;4.40;;;26.80;92.60;;;;;;5013954;28;20241;-70
2023/07/07 10:36:53;;;;;;;6.37;4.77;;;26.90;93.80;;;;;;5007798;28;21011;-70
2023/07/07 10:39:24;;;;;;;7.67;4.70;;;27.00;91.80;;;;;;5009690;28;20473;-70
2023/07/07 10:41:51;;;;;;;6.80;4.70;;;27.10;92.20;;;;;;5010499;28;20473;-70
2023/07/07 10:46:43;;;;;;;6.90;4.93;;;27.10;90.20;;;;;;5037520;23;20487;-69
2023/07/07 10:49:16;;;;;;;6.93;5.03;;;27.20;92.40;;;;;;4971823;28;20247;-68
2023/07/07 10:51:53;;;;;;;4.83;4.30;;;27.20;90.50;;;;;;4971335;28;20467;-69
2023/07/07 10:54:33;;;;;;;7.40;5.13;;;27.20;92.90;;;;;;4971145;28;20486;-68
2023/07/07 10:57:35;;;;;;;6.70;5.10;;;27.20;91.80;;;;;;4971511;28;20470;-69
2023/07/07 11:00:15;;;;;;;6.13;5.00;;;27.20;92.60;;;;;;4971623;28;21005;-69
2023/07/07 11:03:04;;;;;;;7.00;5.00;;;27.30;91.20;;;;;;4971423;28;20471;-69
2023/07/07 11:05:42;;;;;;;8.27;6.10;;;27.40;90.50;;;;;;4971241;28;20463;-67
2023/07/07 11:08:23;;;;;;;6.60;5.07;;;27.50;91.40;;;;;;4971389;28;20574;-68
2023/07/07 11:11:18;;;;;;;7.00;5.17;;;27.60;91.50;;;;;;4970918;28;20471;-69
2023/07/07 11:14:04;;;;;;;8.80;6.10;;;27.70;94.10;;;;;;4970460;28;20467;-69
2023/07/07 11:16:39;;;;;;;7.00;5.43;;;27.90;94.20;;;;;;4971194;28;20475;-69
2023/07/07 11:19:19;;;;;;;10.63;5.87;;;28.00;93.70;;;;;;4971499;28;20487;-68
2023/07/07 11:21:55;;;;;;;7.97;5.80;;;28.10;90.20;;;;;;4970917;28;20471;-68
2023/07/07 11:24:29;;;;;;;5.93;4.80;;;28.20;90.80;;;;;;4970659;28;20470;-68
2023/07/07 11:27:15;;;;;;;7.17;5.20;;;28.30;87.40;;;;;;4970987;28;20491;-70
2023/07/07 11:29:49;;;;;;;7.30;4.60;;;28.30;87.70;;;;;;4974176;28;20478;-69
2023/07/07 11:32:22;;;;;;;5.60;4.60;;;28.40;92.70;;;;;;4989706;28;20470;-68
2023/07/07 11:35:16;;;;;;;6.07;4.20;;;28.40;92.80;;;;;;4989429;28;20481;-70
2023/07/07 11:37:56;;;;;;;7.40;5.77;;;28.50;92.70;;;;;;4963911;28;20537;-69
2023/07/07 11:40:42;;;;;;;5.80;4.93;;;28.50;88.70;;;;;;4970594;28;20983;-70
2023/07/07 11:43:31;;;;;;;6.17;5.13;;;28.40;86.90;;;;;;4970263;28;21064;-68
2023/07/07 11:46:12;;;;;;;5.80;4.63;;;28.30;91.40;;;;;;4970966;28;20459;-69
2023/07/07 11:48:50;;;;;;;5.53;4.50;;;28.40;91.10;;;;;;4970846;28;20544;-67
2023/07/07 11:51:29;;;;;;;6.67;5.40;;;28.50;88.00;;;;;;4970376;28;20466;-70
2023/07/07 11:54:37;;;;;;;5.67;4.80;;;28.60;88.20;;;;;;4970356;28;20517;-69
2023/07/07 11:57:17;;;;;;;6.73;4.70;;;28.80;86.60;;;;;;4964884;28;20464;-69
2023/07/07 12:00:01;;;;;;;5.27;4.77;;;28.90;86.60;;;;;;4986312;28;20463;-68
2023/07/07 12:02:33;;;;;;;6.07;4.53;;;29.00;87.70;;;;;;4971224;28;20875;-67
2023/07/07 12:05:01;;;;;;;6.57;5.17;;;29.10;81.50;;;;;;4970996;28;20463;-68
2023/07/07 12:07:33;;;;;;;5.73;4.70;;;29.20;87.10;;;;;;4968725;28;20843;-69
2023/07/07 12:10:05;;;;;;;7.30;4.77;;;29.20;88.70;;;;;;4970821;28;20482;-69
2023/07/07 12:12:37;;;;;;;6.73;5.13;;;29.30;82.60;;;;;;4970602;28;20474;-70
2023/07/07 12:15:12;;;;;;;6.57;5.27;;;29.30;82.80;;;;;;4969817;28;20995;-70
2023/07/07 12:17:41;;;;;;;6.40;4.70;;;29.40;86.60;;;;;;4970619;28;21022;-70
2023/07/07 12:20:14;;;;;;;5.37;4.33;;;29.40;79.60;;;;;;4970399;28;20474;-70
2023/07/07 12:22:41;;;;;;;7.57;4.90;;;29.40;84.80;;;;;;4970409;28;20530;-69
2023/07/07 12:25:21;;;;;;;6.53;5.20;;;29.40;87.10;;;;;;4970046;28;20464;-70
2023/07/07 12:27:51;;;;;;;7.30;5.23;;;29.40;88.70;;;;;;4970653;28;20483;-70
2023/07/07 12:30:21;;;;;;;5.33;4.57;;;29.60;88.30;;;;;;4969941;28;20463;-69
2023/07/07 12:32:48;;;;;;;6.00;4.77;;;29.70;88.30;;;;;;4969256;28;20482;-70
2023/07/07 12:35:18;;;;;;;5.33;4.77;;;29.70;85.90;;;;;;4969499;28;20537;-69
2023/07/07 12:37:45;;;;;;;7.37;5.00;;;29.80;88.30;;;;;;4970592;28;20475;-70
2023/07/07 12:40:17;;;;;;;6.40;4.63;;;29.80;87.70;;;;;;4970478;28;20463;-68
2023/07/07 12:42:45;;;;;;;6.00;5.40;;;29.90;87.10;;;;;;4970152;28;20463;-69
2023/07/07 12:45:27;;;;;;;5.23;4.70;;;29.90;81.90;;;;;;4972781;28;20471;-70
2023/07/07 12:48:02;;;;;;;6.00;5.30;;;30.00;81.70;;;;;;4967687;28;20514;-68
2023/07/07 12:50:31;;;;;;;5.77;4.60;;;30.10;88.60;;;;;;4973358;28;20470;-69
2023/07/07 12:53:05;;;;;;;6.47;4.87;;;30.10;85.50;;;;;;4973503;28;20498;-69
2023/07/07 12:55:37;;;;;;;6.30;5.00;;;30.20;88.80;;;;;;4973158;28;20482;-69
2023/07/07 12:58:33;;;;;;;7.63;4.80;;;30.20;82.00;;;;;;4973466;28;20487;-70
2023/07/07 13:01:11;;;;;;;6.13;5.20;;;30.20;85.60;;;;;;4971185;28;20475;-70
2023/07/07 13:03:45;;;;;;;5.23;4.37;;;30.30;85.60;;;;;;4991101;28;21546;-70
2023/07/07 13:06:33;;;;;;;7.03;5.17;;;30.30;82.80;;;;;;4985761;28;20974;-70
2023/07/07 13:09:16;;;;;;;6.37;4.70;;;30.30;81.70;;;;;;4973529;28;20483;-70